Pagrindinis puslapis
METAR-TAF:

METAR-TAF

Oro uostai :

Nadžafas, Irakas

platuma: 31-59-23N, ilguma: 44-24-15E, Aukštis: 31 m

Dabartinis oras

Ataskaita buvo paskelbta 2 valandos ir 9 minutes, ne 21:00 UTC
Vėjas 6 kt iš Šiaurės Vakarų
Temperatūra 30°C
Drėgmė 21%
Slėgis 1004 hPa
Matomumas: 7000 m

METAR: ORNI 232100Z 31006KT 7000 NSC 30/05 Q1004

Laikas: 02:09 (23:09 UTC)

Prognozė

Ataskaita buvo paskelbta 7 valandos ir 9 minutes, ne 16:00 UTC
Prognozė galioja nuo 23 metu 18 UTC su 24 metu 18 UTC
Vėjas 6 kt iš Vakarų/Šiaurės Vakarų
Matomumas: 8000 m

TAF: ORNI 231600Z 2318/2418 30006KT 8000 NSC

Orai ataskaitas ir orų prognozės (METAR, TAF).

turimą stotys yra geltonos ir raudonos taškus žemėlapyje.

Perkelti pele per norėdami pamatyti stoties vardą.

Tada spustelėkite, norėdami matyti oro stebėjimo ir prognozės.

Norėdami pakeisti žemėlapį: spustelėkite ant žalios mygtukų su juodo kryžiaus žemyn,; žalią mygtuką su brūkšneliu, jei norite nutolinti; arba žalių rodyklių gretimoms žemėlapius.


METAR-TAF: